Terminal Aerodrome Forecast
Issued by NWS

Home | Current Version | Previous Version | Text Only | Print | Product List | Glossary On
Versions: 1 2 3 4 5 6 7 8 9 10 11 12 13 14 15 16 17 18 19
000
FTUS43 KGRR 291417 AAA
TAFLAN
TAF AMD
KLAN 291417Z 2914/3012 10007KT 4SM -SHRA BR OVC035
     FM300200 14004KT 4SM BR OVC025
     FM300800 VRB03KT 2SM BR OVC007
     FM301000 07005KT 1SM BR OVC003=

USA.gov is the U.S. government's official web portal to all federal, state and local government web resources and services.